createdAt,value
2023-07-07T00:00:02.000Z,16000.0
2023-07-07T00:01:01.000Z,16000.0
2023-07-07T00:02:01.000Z,16000.0
2023-07-07T00:03:02.000Z,16000.0
2023-07-07T00:04:01.000Z,16000.0
2023-07-07T00:05:02.000Z,16000.0
2023-07-07T00:06:01.000Z,16000.0
2023-07-07T00:07:01.000Z,16000.0
2023-07-07T00:08:02.000Z,16000.0
2023-07-07T00:09:01.000Z,16000.0
2023-07-07T00:10:02.000Z,16000.0
2023-07-07T00:11:01.000Z,15494.0
2023-07-07T00:12:01.000Z,16000.0
2023-07-07T00:13:02.000Z,16000.0
2023-07-07T00:14:01.000Z,16000.0
2023-07-07T00:15:01.000Z,16000.0
2023-07-07T00:16:02.000Z,16000.0
2023-07-07T00:17:01.000Z,16000.0
2023-07-07T00:18:02.000Z,16000.0
2023-07-07T00:19:01.000Z,16000.0
2023-07-07T00:20:01.000Z,16000.0
2023-07-07T00:21:02.000Z,16000.0
2023-07-07T00:22:01.000Z,16000.0
2023-07-07T00:23:01.000Z,16000.0
2023-07-07T00:24:01.000Z,16000.0
2023-07-07T00:25:01.000Z,16000.0
2023-07-07T00:26:02.000Z,16000.0
2023-07-07T00:27:01.000Z,16000.0
2023-07-07T00:28:01.000Z,16000.0
2023-07-07T00:29:02.000Z,16000.0
2023-07-07T00:30:01.000Z,16000.0
2023-07-07T00:31:02.000Z,16000.0
2023-07-07T00:32:01.000Z,16000.0
2023-07-07T00:33:01.000Z,16000.0
2023-07-07T00:34:02.000Z,16000.0
2023-07-07T00:35:01.000Z,16000.0
2023-07-07T00:36:01.000Z,16000.0
2023-07-07T00:37:02.000Z,16000.0
2023-07-07T00:38:01.000Z,16000.0
2023-07-07T00:39:01.000Z,16000.0
2023-07-07T00:40:01.000Z,16000.0
2023-07-07T00:41:01.000Z,16000.0
2023-07-07T00:42:02.000Z,16000.0
2023-07-07T00:43:01.000Z,16000.0
2023-07-07T00:44:01.000Z,16000.0
2023-07-07T00:45:02.000Z,16000.0
2023-07-07T00:46:01.000Z,16000.0
2023-07-07T00:47:02.000Z,16000.0
2023-07-07T00:48:01.000Z,16000.0
2023-07-07T00:49:01.000Z,16000.0
2023-07-07T00:50:02.000Z,16000.0
2023-07-07T00:51:01.000Z,16000.0
2023-07-07T00:52:01.000Z,16000.0
2023-07-07T00:53:02.000Z,16000.0
2023-07-07T00:54:01.000Z,16000.0
2023-07-07T00:55:02.000Z,16000.0
2023-07-07T00:56:01.000Z,16000.0
2023-07-07T00:57:01.000Z,16000.0
2023-07-07T00:58:02.000Z,16000.0
2023-07-07T00:59:01.000Z,16000.0
2023-07-07T01:00:01.000Z,16000.0
2023-07-07T01:01:01.000Z,16000.0
2023-07-07T01:02:01.000Z,16000.0
2023-07-07T01:03:02.000Z,16000.0
2023-07-07T01:04:01.000Z,16000.0
2023-07-07T01:05:01.000Z,16000.0
2023-07-07T01:06:02.000Z,16000.0
2023-07-07T01:07:01.000Z,16000.0
2023-07-07T01:08:02.000Z,16000.0
2023-07-07T01:09:01.000Z,16000.0
2023-07-07T01:10:01.000Z,16000.0
2023-07-07T01:11:02.000Z,16000.0
2023-07-07T01:12:01.000Z,16000.0
2023-07-07T01:13:01.000Z,16000.0
2023-07-07T01:14:01.000Z,16000.0
2023-07-07T01:15:01.000Z,16000.0
2023-07-07T01:16:02.000Z,16000.0
2023-07-07T01:17:01.000Z,16000.0
2023-07-07T01:18:01.000Z,16000.0
2023-07-07T01:19:02.000Z,16000.0
2023-07-07T01:20:01.000Z,16000.0
2023-07-07T01:21:02.000Z,15022.0
2023-07-07T01:22:01.000Z,13294.0
2023-07-07T01:23:01.000Z,12037.0
2023-07-07T01:24:02.000Z,10718.0
2023-07-07T01:25:01.000Z,11300.0
2023-07-07T01:26:01.000Z,11474.0
2023-07-07T01:27:01.000Z,11854.0
2023-07-07T01:28:01.000Z,12394.0
2023-07-07T01:29:02.000Z,11437.0
2023-07-07T01:30:01.000Z,10147.0
2023-07-07T01:31:01.000Z,10090.0
2023-07-07T01:32:02.000Z,10458.0
2023-07-07T01:33:01.000Z,9258.0
2023-07-07T01:34:01.000Z,9168.0
2023-07-07T01:35:02.000Z,8385.0
2023-07-07T01:36:01.000Z,6825.0
2023-07-07T01:37:02.000Z,2161.0
2023-07-07T01:38:01.000Z,1196.0
2023-07-07T01:39:01.000Z,1956.0
2023-07-07T01:40:02.000Z,2778.0
2023-07-07T01:41:01.000Z,3817.0
2023-07-07T01:42:01.000Z,4803.0
2023-07-07T01:43:02.000Z,4462.0
2023-07-07T01:44:01.000Z,3695.0
2023-07-07T01:45:02.000Z,1998.0
2023-07-07T01:46:01.000Z,1874.0
2023-07-07T01:47:01.000Z,2173.0
2023-07-07T01:48:02.000Z,2701.0
2023-07-07T01:49:01.000Z,3242.0
2023-07-07T01:50:01.000Z,3690.0
2023-07-07T01:51:01.000Z,3764.0
2023-07-07T01:52:01.000Z,4144.0
2023-07-07T01:53:02.000Z,4816.0
2023-07-07T01:54:01.000Z,5606.0
2023-07-07T01:55:01.000Z,6684.0
2023-07-07T01:56:02.000Z,7573.0
2023-07-07T01:57:01.000Z,8377.0
2023-07-07T01:58:02.000Z,8611.0
2023-07-07T01:59:01.000Z,8723.0
2023-07-07T02:00:01.000Z,8870.0
2023-07-07T02:01:02.000Z,8789.0
2023-07-07T02:02:01.000Z,9306.0
2023-07-07T02:03:01.000Z,9434.0
2023-07-07T02:04:01.000Z,10046.0
2023-07-07T02:05:01.000Z,13133.0
2023-07-07T02:06:02.000Z,14710.0
2023-07-07T02:07:01.000Z,13860.0
2023-07-07T02:08:01.000Z,14059.0
2023-07-07T02:09:02.000Z,13851.0
2023-07-07T02:10:01.000Z,14777.0
2023-07-07T02:11:02.000Z,14447.0
2023-07-07T02:12:01.000Z,13092.0
2023-07-07T02:13:01.000Z,10304.0
2023-07-07T02:14:02.000Z,8319.0
2023-07-07T02:15:01.000Z,9331.0
2023-07-07T02:16:01.000Z,9528.0
2023-07-07T02:17:01.000Z,11151.0
2023-07-07T02:18:01.000Z,11847.0
2023-07-07T02:19:02.000Z,13568.0
2023-07-07T02:20:01.000Z,15131.0
2023-07-07T02:21:01.000Z,14479.0
2023-07-07T02:22:02.000Z,13038.0
2023-07-07T02:23:01.000Z,14239.0
2023-07-07T02:24:01.000Z,13136.0
2023-07-07T02:25:01.000Z,13665.0
2023-07-07T02:26:01.000Z,14336.0
2023-07-07T02:27:02.000Z,14975.0
2023-07-07T02:28:01.000Z,14899.0
2023-07-07T02:29:01.000Z,14221.0
2023-07-07T02:30:01.000Z,12779.0
2023-07-07T02:31:01.000Z,11469.0
2023-07-07T02:32:02.000Z,12101.0
2023-07-07T02:33:01.000Z,8092.0
2023-07-07T02:34:01.000Z,7052.0
2023-07-07T02:35:02.000Z,6995.0
2023-07-07T02:36:01.000Z,7801.0
2023-07-07T02:37:01.000Z,8039.0
2023-07-07T02:38:01.000Z,8405.0
2023-07-07T02:39:01.000Z,8233.0
2023-07-07T02:40:02.000Z,7354.0
2023-07-07T02:41:01.000Z,7456.0
2023-07-07T02:42:01.000Z,7906.0
2023-07-07T02:43:02.000Z,8870.0
2023-07-07T02:44:01.000Z,8973.0
2023-07-07T02:45:01.000Z,9095.0
2023-07-07T02:46:01.000Z,9548.0
2023-07-07T02:47:01.000Z,8857.0
2023-07-07T02:48:02.000Z,9555.0
2023-07-07T02:49:01.000Z,9094.0
2023-07-07T02:50:01.000Z,9733.0
2023-07-07T02:51:01.000Z,10942.0
2023-07-07T02:52:01.000Z,11187.0
2023-07-07T02:53:02.000Z,10123.0
2023-07-07T02:54:01.000Z,9922.0
2023-07-07T02:55:01.000Z,10222.0
2023-07-07T02:56:02.000Z,12211.0
2023-07-07T02:57:01.000Z,13612.0
2023-07-07T02:58:02.000Z,15514.0
2023-07-07T02:59:01.000Z,12640.0
2023-07-07T03:00:01.000Z,10979.0
2023-07-07T03:01:02.000Z,10936.0
2023-07-07T03:02:01.000Z,12235.0
2023-07-07T03:03:01.000Z,14065.0
2023-07-07T03:04:01.000Z,12352.0
2023-07-07T03:05:01.000Z,11870.0
2023-07-07T03:06:02.000Z,11836.0
2023-07-07T03:07:01.000Z,12239.0
2023-07-07T03:08:01.000Z,10615.0
2023-07-07T03:09:02.000Z,10255.0
2023-07-07T03:10:01.000Z,9951.0
2023-07-07T03:11:01.000Z,8575.0
2023-07-07T03:12:01.000Z,8788.0
2023-07-07T03:13:01.000Z,8532.0
2023-07-07T03:14:02.000Z,8788.0
2023-07-07T03:15:01.000Z,9527.0
2023-07-07T03:16:01.000Z,9538.0
2023-07-07T03:17:02.000Z,9714.0
2023-07-07T03:18:01.000Z,11279.0
2023-07-07T03:19:02.000Z,11262.0
2023-07-07T03:20:01.000Z,13022.0
2023-07-07T03:21:01.000Z,13819.0
2023-07-07T03:22:02.000Z,14962.0
2023-07-07T03:23:01.000Z,11702.0
2023-07-07T03:24:01.000Z,8403.0
2023-07-07T03:25:01.000Z,6844.0
2023-07-07T03:26:01.000Z,3683.0
2023-07-07T03:27:02.000Z,1365.0
2023-07-07T03:28:01.000Z,1499.0
2023-07-07T03:29:01.000Z,1262.0
2023-07-07T03:30:01.000Z,1045.0
2023-07-07T03:31:01.000Z,323.0
2023-07-07T03:32:01.000Z,210.0
2023-07-07T03:33:01.000Z,206.0
2023-07-07T03:34:01.000Z,231.0
2023-07-07T03:35:02.000Z,207.0
2023-07-07T03:36:01.000Z,295.0
2023-07-07T03:37:01.000Z,221.0
2023-07-07T03:38:02.000Z,425.0
2023-07-07T03:39:01.000Z,716.0
2023-07-07T03:40:01.000Z,386.0
2023-07-07T03:41:02.000Z,737.0
2023-07-07T03:42:01.000Z,1066.0
2023-07-07T03:43:02.000Z,787.0
2023-07-07T03:44:01.000Z,1371.0
2023-07-07T03:45:01.000Z,1941.0
2023-07-07T03:46:02.000Z,2549.0
2023-07-07T03:47:01.000Z,3442.0
2023-07-07T03:48:01.000Z,4408.0
2023-07-07T03:49:01.000Z,5515.0
2023-07-07T03:50:01.000Z,6730.0
2023-07-07T03:51:02.000Z,6963.0
2023-07-07T03:52:01.000Z,8088.0
2023-07-07T03:53:01.000Z,9165.0
2023-07-07T03:54:02.000Z,11131.0
2023-07-07T03:55:01.000Z,13448.0
2023-07-07T03:56:01.000Z,15239.0
2023-07-07T03:57:01.000Z,16000.0
2023-07-07T03:58:01.000Z,16000.0
2023-07-07T03:59:02.000Z,12362.0
2023-07-07T04:00:01.000Z,10084.0
2023-07-07T04:01:01.000Z,9501.0
2023-07-07T04:02:01.000Z,9241.0
2023-07-07T04:03:01.000Z,11561.0
2023-07-07T04:04:02.000Z,12225.0
2023-07-07T04:05:01.000Z,14237.0
2023-07-07T04:06:01.000Z,12127.0
2023-07-07T04:07:02.000Z,9288.0
2023-07-07T04:08:01.000Z,7524.0
2023-07-07T04:09:02.000Z,7154.0
2023-07-07T04:10:01.000Z,7878.0
2023-07-07T04:11:01.000Z,8519.0
2023-07-07T04:12:02.000Z,8565.0
2023-07-07T04:13:01.000Z,7558.0
2023-07-07T04:14:01.000Z,6242.0
2023-07-07T04:15:01.000Z,5722.0
2023-07-07T04:16:01.000Z,5995.0
2023-07-07T04:17:02.000Z,7294.0
2023-07-07T04:18:01.000Z,9317.0
2023-07-07T04:19:01.000Z,11964.0
2023-07-07T04:20:02.000Z,11833.0
2023-07-07T04:21:01.000Z,13851.0
2023-07-07T04:22:01.000Z,15960.0
2023-07-07T04:23:01.000Z,16000.0
2023-07-07T04:24:01.000Z,16000.0
2023-07-07T04:25:02.000Z,16000.0
2023-07-07T04:26:01.000Z,16000.0
2023-07-07T04:27:01.000Z,16000.0
2023-07-07T04:28:01.000Z,16000.0
2023-07-07T04:29:01.000Z,16000.0
2023-07-07T04:30:02.000Z,16000.0
2023-07-07T04:31:01.000Z,16000.0
2023-07-07T04:32:01.000Z,16000.0
2023-07-07T04:33:02.000Z,16000.0
2023-07-07T04:34:01.000Z,16000.0
2023-07-07T04:35:01.000Z,16000.0
2023-07-07T04:36:02.000Z,16000.0
2023-07-07T04:37:01.000Z,16000.0
2023-07-07T04:38:01.000Z,16000.0
2023-07-07T04:39:01.000Z,15453.0
2023-07-07T04:40:01.000Z,14876.0
2023-07-07T04:41:02.000Z,16000.0
2023-07-07T04:42:01.000Z,16000.0
2023-07-07T04:43:01.000Z,16000.0
2023-07-07T04:44:02.000Z,16000.0
2023-07-07T04:45:01.000Z,16000.0
2023-07-07T04:46:01.000Z,16000.0
2023-07-07T04:47:01.000Z,16000.0
2023-07-07T04:48:01.000Z,16000.0
2023-07-07T04:49:02.000Z,16000.0
2023-07-07T04:50:01.000Z,16000.0
2023-07-07T04:51:01.000Z,16000.0
2023-07-07T04:52:01.000Z,16000.0
2023-07-07T04:53:01.000Z,16000.0
2023-07-07T04:54:02.000Z,16000.0
2023-07-07T04:55:01.000Z,16000.0
2023-07-07T04:56:01.000Z,16000.0
2023-07-07T04:57:02.000Z,16000.0
2023-07-07T04:58:01.000Z,16000.0
2023-07-07T04:59:01.000Z,16000.0
2023-07-07T05:00:01.000Z,16000.0
2023-07-07T05:01:01.000Z,16000.0
2023-07-07T05:02:02.000Z,16000.0
2023-07-07T05:03:01.000Z,16000.0
2023-07-07T05:04:01.000Z,16000.0
2023-07-07T05:05:01.000Z,16000.0
2023-07-07T05:06:01.000Z,16000.0
2023-07-07T05:07:02.000Z,16000.0
2023-07-07T05:08:01.000Z,16000.0
2023-07-07T05:09:01.000Z,16000.0
2023-07-07T05:10:02.000Z,16000.0
2023-07-07T05:11:01.000Z,16000.0
2023-07-07T05:12:01.000Z,16000.0
2023-07-07T05:13:01.000Z,16000.0
2023-07-07T05:14:01.000Z,16000.0
2023-07-07T05:15:02.000Z,16000.0
2023-07-07T05:16:01.000Z,16000.0
2023-07-07T05:17:01.000Z,16000.0
2023-07-07T05:18:01.000Z,16000.0
2023-07-07T05:19:01.000Z,16000.0
2023-07-07T05:20:02.000Z,16000.0
2023-07-07T05:21:01.000Z,16000.0
2023-07-07T05:22:01.000Z,16000.0
2023-07-07T05:23:02.000Z,16000.0
2023-07-07T05:24:01.000Z,16000.0
2023-07-07T05:25:01.000Z,16000.0
2023-07-07T05:26:01.000Z,16000.0
2023-07-07T05:27:01.000Z,16000.0
2023-07-07T05:28:02.000Z,16000.0
2023-07-07T05:29:01.000Z,16000.0
2023-07-07T05:30:01.000Z,16000.0
2023-07-07T05:31:01.000Z,16000.0
2023-07-07T05:32:01.000Z,16000.0
2023-07-07T05:33:01.000Z,16000.0
2023-07-07T05:34:01.000Z,16000.0
2023-07-07T05:35:01.000Z,16000.0
2023-07-07T05:36:02.000Z,16000.0
2023-07-07T05:37:01.000Z,16000.0
2023-07-07T05:38:01.000Z,16000.0
2023-07-07T05:39:01.000Z,16000.0
2023-07-07T05:40:01.000Z,16000.0
2023-07-07T05:41:02.000Z,16000.0
2023-07-07T05:42:01.000Z,16000.0
2023-07-07T05:43:01.000Z,16000.0
2023-07-07T05:44:02.000Z,16000.0
2023-07-07T05:45:01.000Z,16000.0
2023-07-07T05:46:02.000Z,16000.0
2023-07-07T05:47:01.000Z,16000.0
2023-07-07T05:48:01.000Z,16000.0
2023-07-07T05:49:02.000Z,16000.0
2023-07-07T05:50:01.000Z,16000.0
2023-07-07T05:51:01.000Z,16000.0
2023-07-07T05:52:01.000Z,16000.0
2023-07-07T05:53:01.000Z,16000.0
2023-07-07T05:54:02.000Z,16000.0
2023-07-07T05:55:01.000Z,16000.0
2023-07-07T05:56:01.000Z,16000.0
2023-07-07T05:57:02.000Z,16000.0
2023-07-07T05:58:01.000Z,16000.0
2023-07-07T05:59:01.000Z,16000.0
2023-07-07T06:00:01.000Z,16000.0
2023-07-07T06:01:01.000Z,16000.0
2023-07-07T06:02:02.000Z,16000.0
2023-07-07T06:03:01.000Z,16000.0
2023-07-07T06:04:01.000Z,16000.0
2023-07-07T06:05:01.000Z,16000.0
2023-07-07T06:06:01.000Z,16000.0
2023-07-07T06:07:02.000Z,16000.0
2023-07-07T06:08:01.000Z,16000.0
2023-07-07T06:09:01.000Z,16000.0
2023-07-07T06:10:02.000Z,16000.0
2023-07-07T06:11:01.000Z,16000.0
2023-07-07T06:12:02.000Z,16000.0
2023-07-07T06:13:01.000Z,16000.0
2023-07-07T06:14:01.000Z,16000.0
2023-07-07T06:15:02.000Z,16000.0
2023-07-07T06:16:01.000Z,16000.0
2023-07-07T06:17:01.000Z,16000.0
2023-07-07T06:18:01.000Z,16000.0
2023-07-07T06:19:01.000Z,16000.0
2023-07-07T06:20:02.000Z,16000.0
2023-07-07T06:21:01.000Z,16000.0
2023-07-07T06:22:01.000Z,16000.0
2023-07-07T06:23:02.000Z,16000.0
2023-07-07T06:24:01.000Z,16000.0
2023-07-07T06:25:01.000Z,16000.0
2023-07-07T06:26:01.000Z,16000.0
2023-07-07T06:27:01.000Z,16000.0
2023-07-07T06:28:02.000Z,16000.0
2023-07-07T06:29:01.000Z,16000.0
2023-07-07T06:30:01.000Z,16000.0
2023-07-07T06:31:01.000Z,16000.0
2023-07-07T06:32:01.000Z,16000.0
2023-07-07T06:33:01.000Z,16000.0
2023-07-07T06:34:01.000Z,16000.0
2023-07-07T06:35:01.000Z,16000.0
2023-07-07T06:36:02.000Z,16000.0
2023-07-07T06:37:01.000Z,16000.0
2023-07-07T06:38:01.000Z,16000.0
2023-07-07T06:39:02.000Z,16000.0
2023-07-07T06:40:01.000Z,16000.0
2023-07-07T06:41:01.000Z,16000.0
2023-07-07T06:42:01.000Z,16000.0
2023-07-07T06:43:01.000Z,16000.0
2023-07-07T06:44:02.000Z,16000.0
2023-07-07T06:45:01.000Z,16000.0
2023-07-07T06:46:01.000Z,16000.0
2023-07-07T06:47:02.000Z,16000.0
2023-07-07T06:48:01.000Z,16000.0
2023-07-07T06:49:01.000Z,16000.0
2023-07-07T06:50:01.000Z,16000.0
2023-07-07T06:51:01.000Z,16000.0
2023-07-07T06:52:02.000Z,16000.0
2023-07-07T06:53:01.000Z,16000.0
2023-07-07T06:54:01.000Z,16000.0
2023-07-07T06:55:01.000Z,16000.0
2023-07-07T06:56:01.000Z,16000.0
2023-07-07T06:57:02.000Z,16000.0
2023-07-07T06:58:01.000Z,16000.0
2023-07-07T06:59:01.000Z,16000.0
2023-07-07T07:00:02.000Z,16000.0
2023-07-07T07:01:01.000Z,16000.0
2023-07-07T07:02:01.000Z,16000.0
2023-07-07T07:03:01.000Z,16000.0
2023-07-07T07:04:01.000Z,16000.0
2023-07-07T07:05:02.000Z,16000.0
2023-07-07T07:06:01.000Z,16000.0
2023-07-07T07:07:01.000Z,16000.0
2023-07-07T07:08:01.000Z,16000.0
2023-07-07T07:09:01.000Z,16000.0
2023-07-07T07:10:02.000Z,16000.0
2023-07-07T07:11:01.000Z,16000.0
2023-07-07T07:12:01.000Z,16000.0
2023-07-07T07:13:02.000Z,16000.0
2023-07-07T07:14:01.000Z,16000.0
2023-07-07T07:15:01.000Z,16000.0
2023-07-07T07:16:01.000Z,16000.0
2023-07-07T07:17:01.000Z,16000.0
2023-07-07T07:18:02.000Z,16000.0
2023-07-07T07:19:01.000Z,16000.0
2023-07-07T07:20:01.000Z,16000.0
2023-07-07T07:21:01.000Z,16000.0
2023-07-07T07:22:01.000Z,16000.0
2023-07-07T07:23:02.000Z,16000.0
2023-07-07T07:24:01.000Z,16000.0
2023-07-07T07:25:01.000Z,16000.0
2023-07-07T07:26:02.000Z,16000.0
2023-07-07T07:27:01.000Z,16000.0
2023-07-07T07:28:01.000Z,16000.0
2023-07-07T07:29:01.000Z,16000.0
2023-07-07T07:30:01.000Z,16000.0
2023-07-07T07:31:02.000Z,16000.0
2023-07-07T07:32:01.000Z,16000.0
2023-07-07T07:33:01.000Z,16000.0
2023-07-07T07:34:02.000Z,16000.0
2023-07-07T07:35:01.000Z,16000.0
2023-07-07T07:36:01.000Z,16000.0
2023-07-07T07:37:01.000Z,16000.0
2023-07-07T07:38:01.000Z,16000.0
2023-07-07T07:39:02.000Z,16000.0
2023-07-07T07:40:01.000Z,16000.0
2023-07-07T07:41:01.000Z,16000.0
2023-07-07T07:42:01.000Z,16000.0
2023-07-07T07:43:01.000Z,16000.0
2023-07-07T07:44:02.000Z,16000.0
2023-07-07T07:45:01.000Z,16000.0
2023-07-07T07:46:01.000Z,16000.0
2023-07-07T07:47:02.000Z,16000.0
2023-07-07T07:48:01.000Z,16000.0
2023-07-07T07:49:01.000Z,16000.0
2023-07-07T07:50:01.000Z,16000.0
2023-07-07T07:51:01.000Z,16000.0
2023-07-07T07:52:02.000Z,16000.0
2023-07-07T07:53:01.000Z,16000.0
2023-07-07T07:54:01.000Z,16000.0
2023-07-07T07:55:01.000Z,16000.0
2023-07-07T07:56:01.000Z,16000.0
2023-07-07T07:57:02.000Z,16000.0
2023-07-07T07:58:01.000Z,16000.0
2023-07-07T07:59:01.000Z,16000.0
2023-07-07T08:00:02.000Z,16000.0
2023-07-07T08:01:01.000Z,16000.0
2023-07-07T08:02:01.000Z,16000.0
2023-07-07T08:03:01.000Z,16000.0
2023-07-07T08:04:01.000Z,16000.0
2023-07-07T08:05:02.000Z,16000.0
2023-07-07T08:06:01.000Z,16000.0
2023-07-07T08:07:01.000Z,16000.0
2023-07-07T08:08:01.000Z,16000.0
2023-07-07T08:09:01.000Z,16000.0
2023-07-07T08:10:02.000Z,16000.0
2023-07-07T08:11:01.000Z,16000.0
2023-07-07T08:13:02.000Z,16000.0
2023-07-07T08:14:01.000Z,16000.0
2023-07-07T08:15:01.000Z,16000.0
2023-07-07T08:16:01.000Z,16000.0
2023-07-07T08:17:01.000Z,16000.0
2023-07-07T08:18:02.000Z,16000.0
2023-07-07T08:20:01.000Z,16000.0
2023-07-07T08:21:02.000Z,16000.0
2023-07-07T08:22:01.000Z,16000.0
2023-07-07T08:23:02.000Z,16000.0
2023-07-07T08:24:01.000Z,16000.0
2023-07-07T08:25:01.000Z,16000.0
2023-07-07T08:26:02.000Z,16000.0
2023-07-07T08:28:01.000Z,16000.0
2023-07-07T08:29:01.000Z,16000.0
2023-07-07T08:30:01.000Z,16000.0
2023-07-07T08:31:02.000Z,16000.0
2023-07-07T08:32:01.000Z,16000.0
2023-07-07T08:33:01.000Z,16000.0
2023-07-07T08:34:02.000Z,16000.0
2023-07-07T08:35:01.000Z,16000.0
2023-07-07T08:36:01.000Z,16000.0
2023-07-07T08:37:01.000Z,16000.0
2023-07-07T08:38:01.000Z,16000.0
2023-07-07T08:39:02.000Z,16000.0
2023-07-07T08:40:01.000Z,16000.0
2023-07-07T08:41:01.000Z,16000.0
2023-07-07T08:42:02.000Z,16000.0
2023-07-07T08:43:01.000Z,16000.0
2023-07-07T08:44:02.000Z,16000.0
2023-07-07T08:45:01.000Z,16000.0
2023-07-07T08:46:01.000Z,16000.0
2023-07-07T08:47:02.000Z,16000.0
2023-07-07T08:48:01.000Z,16000.0
2023-07-07T08:49:01.000Z,16000.0
2023-07-07T08:50:01.000Z,16000.0
2023-07-07T08:51:01.000Z,16000.0
2023-07-07T08:52:02.000Z,16000.0
2023-07-07T08:53:01.000Z,16000.0
2023-07-07T08:54:01.000Z,16000.0
2023-07-07T08:55:01.000Z,16000.0
2023-07-07T08:56:01.000Z,16000.0
2023-07-07T08:57:02.000Z,16000.0
2023-07-07T08:58:01.000Z,16000.0
2023-07-07T08:59:01.000Z,16000.0
2023-07-07T09:00:02.000Z,16000.0
2023-07-07T09:01:01.000Z,16000.0
2023-07-07T09:02:01.000Z,16000.0
2023-07-07T09:03:01.000Z,16000.0
2023-07-07T09:04:01.000Z,16000.0
2023-07-07T09:05:02.000Z,16000.0
2023-07-07T09:06:01.000Z,16000.0
2023-07-07T09:07:01.000Z,16000.0
2023-07-07T09:08:02.000Z,16000.0
2023-07-07T09:09:01.000Z,16000.0
2023-07-07T09:10:02.000Z,16000.0
2023-07-07T09:11:01.000Z,16000.0
2023-07-07T09:12:01.000Z,16000.0
2023-07-07T09:13:02.000Z,16000.0
2023-07-07T09:14:01.000Z,16000.0
2023-07-07T09:15:01.000Z,16000.0
2023-07-07T09:16:01.000Z,16000.0
2023-07-07T09:17:01.000Z,16000.0
2023-07-07T09:18:02.000Z,16000.0
2023-07-07T09:19:01.000Z,16000.0
2023-07-07T09:20:01.000Z,16000.0
2023-07-07T09:21:02.000Z,16000.0
2023-07-07T09:22:01.000Z,16000.0
2023-07-07T09:23:02.000Z,16000.0
2023-07-07T09:24:01.000Z,16000.0
2023-07-07T09:25:01.000Z,16000.0
2023-07-07T09:26:02.000Z,16000.0
2023-07-07T09:27:01.000Z,16000.0
2023-07-07T09:28:01.000Z,16000.0
2023-07-07T09:29:01.000Z,16000.0
2023-07-07T09:30:01.000Z,16000.0
2023-07-07T09:31:02.000Z,16000.0
2023-07-07T09:32:01.000Z,16000.0
2023-07-07T09:33:01.000Z,16000.0
2023-07-07T09:34:02.000Z,16000.0
2023-07-07T09:35:01.000Z,16000.0
2023-07-07T09:36:01.000Z,16000.0
2023-07-07T09:37:02.000Z,16000.0
2023-07-07T09:38:01.000Z,16000.0
2023-07-07T09:39:01.000Z,16000.0
2023-07-07T09:40:01.000Z,16000.0
2023-07-07T09:41:01.000Z,16000.0
2023-07-07T09:42:02.000Z,16000.0
2023-07-07T09:43:01.000Z,16000.0
2023-07-07T09:44:01.000Z,16000.0
2023-07-07T09:45:02.000Z,16000.0
2023-07-07T09:46:01.000Z,16000.0
2023-07-07T09:47:02.000Z,16000.0
2023-07-07T09:48:01.000Z,16000.0
2023-07-07T09:49:01.000Z,16000.0
2023-07-07T09:50:02.000Z,16000.0
2023-07-07T09:51:01.000Z,16000.0
2023-07-07T09:52:01.000Z,16000.0
2023-07-07T09:53:01.000Z,16000.0
2023-07-07T09:54:01.000Z,16000.0
2023-07-07T09:55:02.000Z,16000.0
2023-07-07T09:56:01.000Z,16000.0
2023-07-07T09:57:01.000Z,16000.0
2023-07-07T09:58:02.000Z,16000.0
2023-07-07T09:59:01.000Z,16000.0
2023-07-07T10:00:02.000Z,16000.0
2023-07-07T10:01:01.000Z,16000.0
2023-07-07T10:02:01.000Z,16000.0
2023-07-07T10:03:02.000Z,16000.0
2023-07-07T10:04:01.000Z,16000.0
2023-07-07T10:05:01.000Z,16000.0
2023-07-07T10:06:01.000Z,16000.0
2023-07-07T10:07:01.000Z,16000.0
2023-07-07T10:08:02.000Z,16000.0
2023-07-07T10:09:01.000Z,16000.0
2023-07-07T10:10:01.000Z,16000.0
2023-07-07T10:11:02.000Z,16000.0
2023-07-07T10:13:02.000Z,16000.0
2023-07-07T10:14:01.000Z,16000.0
2023-07-07T10:15:01.000Z,16000.0
2023-07-07T10:16:02.000Z,16000.0
2023-07-07T10:17:01.000Z,16000.0
2023-07-07T10:18:01.000Z,16000.0
2023-07-07T10:19:01.000Z,16000.0
2023-07-07T10:20:01.000Z,16000.0
2023-07-07T10:21:02.000Z,16000.0
2023-07-07T10:22:01.000Z,16000.0
2023-07-07T10:23:01.000Z,16000.0
2023-07-07T10:24:02.000Z,16000.0
2023-07-07T10:25:01.000Z,16000.0
2023-07-07T10:26:02.000Z,16000.0
2023-07-07T10:27:01.000Z,16000.0
2023-07-07T10:28:01.000Z,16000.0
2023-07-07T10:29:02.000Z,16000.0
2023-07-07T10:30:01.000Z,16000.0
2023-07-07T10:31:01.000Z,16000.0
2023-07-07T10:32:02.000Z,16000.0
2023-07-07T10:33:01.000Z,16000.0
2023-07-07T10:34:01.000Z,16000.0
2023-07-07T10:35:01.000Z,7258.0
2023-07-07T10:36:01.000Z,10159.0
2023-07-07T10:37:02.000Z,14522.0
2023-07-07T10:38:01.000Z,16000.0
2023-07-07T10:39:01.000Z,16000.0
2023-07-07T10:40:02.000Z,16000.0
2023-07-07T10:41:01.000Z,16000.0
2023-07-07T10:42:01.000Z,16000.0
2023-07-07T10:43:01.000Z,16000.0
2023-07-07T10:44:01.000Z,16000.0
2023-07-07T10:45:02.000Z,16000.0
2023-07-07T10:46:01.000Z,16000.0
2023-07-07T10:47:01.000Z,16000.0
2023-07-07T10:48:02.000Z,16000.0
2023-07-07T10:49:01.000Z,16000.0
2023-07-07T10:50:02.000Z,16000.0
2023-07-07T10:51:01.000Z,16000.0
2023-07-07T10:52:01.000Z,16000.0
2023-07-07T10:53:02.000Z,16000.0
2023-07-07T10:54:01.000Z,16000.0
2023-07-07T10:55:01.000Z,16000.0
2023-07-07T10:56:01.000Z,16000.0
2023-07-07T10:57:01.000Z,16000.0
2023-07-07T10:58:02.000Z,16000.0
2023-07-07T10:59:01.000Z,16000.0
2023-07-07T11:00:01.000Z,16000.0
2023-07-07T11:01:02.000Z,16000.0
2023-07-07T11:02:01.000Z,16000.0
2023-07-07T11:03:01.000Z,16000.0
2023-07-07T11:04:01.000Z,16000.0
2023-07-07T11:05:01.000Z,16000.0
2023-07-07T11:06:02.000Z,16000.0
2023-07-07T11:19:02.000Z,16000.0
2023-07-07T11:20:01.000Z,16000.0
2023-07-07T11:21:01.000Z,16000.0
2023-07-07T11:22:01.000Z,16000.0
2023-07-07T11:23:01.000Z,16000.0
2023-07-07T11:24:02.000Z,16000.0
2023-07-07T11:25:01.000Z,16000.0
2023-07-07T11:26:01.000Z,16000.0
2023-07-07T11:27:02.000Z,16000.0
2023-07-07T11:28:01.000Z,16000.0
2023-07-07T11:29:01.000Z,16000.0
2023-07-07T11:30:01.000Z,16000.0
2023-07-07T11:31:01.000Z,16000.0
2023-07-07T11:32:01.000Z,16000.0
2023-07-07T11:33:01.000Z,16000.0
2023-07-07T11:34:01.000Z,16000.0
2023-07-07T11:35:02.000Z,16000.0
2023-07-07T11:36:01.000Z,16000.0
2023-07-07T11:37:01.000Z,16000.0
2023-07-07T11:38:02.000Z,16000.0
2023-07-07T11:39:01.000Z,16000.0
2023-07-07T11:40:01.000Z,16000.0
2023-07-07T11:41:01.000Z,16000.0
2023-07-07T11:42:01.000Z,16000.0
2023-07-07T11:43:02.000Z,16000.0
2023-07-07T11:44:01.000Z,16000.0
2023-07-07T11:45:01.000Z,16000.0
2023-07-07T11:46:02.000Z,16000.0
2023-07-07T11:47:01.000Z,16000.0
2023-07-07T11:48:02.000Z,16000.0
2023-07-07T11:49:01.000Z,16000.0
2023-07-07T11:50:01.000Z,16000.0
2023-07-07T11:51:02.000Z,16000.0
2023-07-07T11:52:01.000Z,16000.0
2023-07-07T11:53:02.000Z,16000.0
2023-07-07T11:54:01.000Z,16000.0
2023-07-07T11:55:01.000Z,16000.0
2023-07-07T11:56:02.000Z,16000.0
2023-07-07T11:57:01.000Z,16000.0
2023-07-07T11:58:01.000Z,16000.0
2023-07-07T11:59:02.000Z,16000.0
2023-07-07T12:00:01.000Z,16000.0
2023-07-07T12:01:02.000Z,16000.0
2023-07-07T12:02:01.000Z,16000.0
2023-07-07T12:03:01.000Z,16000.0
2023-07-07T12:04:02.000Z,16000.0
2023-07-07T12:05:01.000Z,16000.0
2023-07-07T12:06:01.000Z,16000.0
2023-07-07T12:07:01.000Z,16000.0
2023-07-07T12:08:01.000Z,16000.0
2023-07-07T12:09:02.000Z,16000.0
2023-07-07T12:10:01.000Z,16000.0
2023-07-07T12:11:01.000Z,16000.0
2023-07-07T12:12:02.000Z,16000.0
2023-07-07T12:13:01.000Z,16000.0
2023-07-07T12:14:02.000Z,16000.0
2023-07-07T12:15:01.000Z,16000.0
2023-07-07T12:16:01.000Z,16000.0
2023-07-07T12:17:02.000Z,16000.0
2023-07-07T12:18:01.000Z,16000.0
2023-07-07T12:19:02.000Z,16000.0
2023-07-07T12:20:01.000Z,16000.0
2023-07-07T12:21:01.000Z,16000.0
2023-07-07T12:22:02.000Z,16000.0
2023-07-07T12:23:01.000Z,16000.0
2023-07-07T12:24:01.000Z,16000.0
2023-07-07T12:25:02.000Z,16000.0